sensor_id;sensor_type;location;lat;lon;timestamp;P1;durP1;ratioP1;P2;durP2;ratioP2
6372;SDS011;3219;51.362;7.074;2022-08-19T00:01:45;9.55;;;6.57;;
6372;SDS011;3219;51.362;7.074;2022-08-19T00:04:13;8.10;;;6.30;;
6372;SDS011;3219;51.362;7.074;2022-08-19T00:06:42;8.40;;;6.22;;
6372;SDS011;3219;51.362;7.074;2022-08-19T00:09:10;7.30;;;5.85;;
6372;SDS011;3219;51.362;7.074;2022-08-19T00:11:37;6.93;;;5.70;;
6372;SDS011;3219;51.362;7.074;2022-08-19T00:14:05;7.32;;;5.45;;
6372;SDS011;3219;51.362;7.074;2022-08-19T00:16:36;7.43;;;5.93;;
6372;SDS011;3219;51.362;7.074;2022-08-19T00:19:04;8.90;;;5.90;;
6372;SDS011;3219;51.362;7.074;2022-08-19T00:21:31;7.85;;;6.10;;
6372;SDS011;3219;51.362;7.074;2022-08-19T00:24:04;7.05;;;5.82;;
6372;SDS011;3219;51.362;7.074;2022-08-19T00:26:32;7.15;;;6.00;;
6372;SDS011;3219;51.362;7.074;2022-08-19T00:29:02;7.45;;;5.53;;
6372;SDS011;3219;51.362;7.074;2022-08-19T00:31:29;5.82;;;4.78;;
6372;SDS011;3219;51.362;7.074;2022-08-19T00:33:58;5.53;;;5.00;;
6372;SDS011;3219;51.362;7.074;2022-08-19T00:36:26;8.70;;;5.97;;
6372;SDS011;3219;51.362;7.074;2022-08-19T00:38:53;6.63;;;5.85;;
6372;SDS011;3219;51.362;7.074;2022-08-19T00:41:20;7.63;;;5.38;;
6372;SDS011;3219;51.362;7.074;2022-08-19T00:43:58;5.80;;;5.10;;
6372;SDS011;3219;51.362;7.074;2022-08-19T00:46:26;7.63;;;6.20;;
6372;SDS011;3219;51.362;7.074;2022-08-19T00:48:53;9.15;;;5.65;;
6372;SDS011;3219;51.362;7.074;2022-08-19T00:51:22;6.70;;;5.57;;
6372;SDS011;3219;51.362;7.074;2022-08-19T00:53:51;7.03;;;5.78;;
6372;SDS011;3219;51.362;7.074;2022-08-19T00:56:19;6.38;;;5.70;;
6372;SDS011;3219;51.362;7.074;2022-08-19T00:58:46;9.25;;;5.75;;
6372;SDS011;3219;51.362;7.074;2022-08-19T01:01:14;6.40;;;5.80;;
6372;SDS011;3219;51.362;7.074;2022-08-19T01:03:41;7.65;;;6.88;;
6372;SDS011;3219;51.362;7.074;2022-08-19T01:06:08;10.48;;;7.05;;
6372;SDS011;3219;51.362;7.074;2022-08-19T01:08:37;9.50;;;6.60;;
6372;SDS011;3219;51.362;7.074;2022-08-19T01:11:04;7.90;;;7.13;;
6372;SDS011;3219;51.362;7.074;2022-08-19T01:13:32;8.05;;;7.25;;
6372;SDS011;3219;51.362;7.074;2022-08-19T01:16:00;8.38;;;7.13;;
6372;SDS011;3219;51.362;7.074;2022-08-19T01:18:29;8.90;;;7.15;;
6372;SDS011;3219;51.362;7.074;2022-08-19T01:21:03;8.75;;;6.95;;
6372;SDS011;3219;51.362;7.074;2022-08-19T01:23:34;10.02;;;7.32;;
6372;SDS011;3219;51.362;7.074;2022-08-19T01:26:12;8.57;;;6.32;;
6372;SDS011;3219;51.362;7.074;2022-08-19T01:28:40;9.70;;;7.03;;
6372;SDS011;3219;51.362;7.074;2022-08-19T01:31:08;9.90;;;7.40;;
6372;SDS011;3219;51.362;7.074;2022-08-19T01:33:37;8.25;;;7.43;;
6372;SDS011;3219;51.362;7.074;2022-08-19T01:36:08;9.20;;;7.72;;
6372;SDS011;3219;51.362;7.074;2022-08-19T01:38:37;9.45;;;8.13;;
6372;SDS011;3219;51.362;7.074;2022-08-19T01:41:06;10.55;;;8.02;;
6372;SDS011;3219;51.362;7.074;2022-08-19T01:43:34;9.55;;;8.48;;
6372;SDS011;3219;51.362;7.074;2022-08-19T01:46:02;11.30;;;8.48;;
6372;SDS011;3219;51.362;7.074;2022-08-19T01:48:32;10.98;;;9.00;;
6372;SDS011;3219;51.362;7.074;2022-08-19T01:51:00;9.68;;;8.60;;
6372;SDS011;3219;51.362;7.074;2022-08-19T01:53:28;10.23;;;9.05;;
6372;SDS011;3219;51.362;7.074;2022-08-19T01:55:57;10.32;;;9.02;;
6372;SDS011;3219;51.362;7.074;2022-08-19T01:58:26;12.48;;;9.27;;
6372;SDS011;3219;51.362;7.074;2022-08-19T02:00:55;12.15;;;9.82;;
6372;SDS011;3219;51.362;7.074;2022-08-19T02:03:23;12.10;;;10.40;;
6372;SDS011;3219;51.362;7.074;2022-08-19T02:05:55;12.38;;;10.52;;
6372;SDS011;3219;51.362;7.074;2022-08-19T02:08:24;12.55;;;10.55;;
6372;SDS011;3219;51.362;7.074;2022-08-19T02:10:52;12.43;;;10.68;;
6372;SDS011;3219;51.362;7.074;2022-08-19T02:13:21;15.02;;;10.40;;
6372;SDS011;3219;51.362;7.074;2022-08-19T02:15:50;11.90;;;10.25;;
6372;SDS011;3219;51.362;7.074;2022-08-19T02:18:18;12.40;;;11.20;;
6372;SDS011;3219;51.362;7.074;2022-08-19T02:20:46;11.80;;;10.60;;
6372;SDS011;3219;51.362;7.074;2022-08-19T02:23:14;13.00;;;11.50;;
6372;SDS011;3219;51.362;7.074;2022-08-19T02:25:42;11.10;;;9.95;;
6372;SDS011;3219;51.362;7.074;2022-08-19T02:28:10;11.70;;;10.35;;
6372;SDS011;3219;51.362;7.074;2022-08-19T02:30:40;11.90;;;10.70;;
6372;SDS011;3219;51.362;7.074;2022-08-19T02:33:08;13.55;;;10.68;;
6372;SDS011;3219;51.362;7.074;2022-08-19T02:35:35;12.35;;;11.02;;
6372;SDS011;3219;51.362;7.074;2022-08-19T02:38:03;14.27;;;11.38;;
6372;SDS011;3219;51.362;7.074;2022-08-19T02:40:48;13.52;;;10.70;;
6372;SDS011;3219;51.362;7.074;2022-08-19T02:43:16;14.00;;;11.27;;
6372;SDS011;3219;51.362;7.074;2022-08-19T02:45:48;13.25;;;11.80;;
6372;SDS011;3219;51.362;7.074;2022-08-19T02:48:16;12.65;;;11.27;;
6372;SDS011;3219;51.362;7.074;2022-08-19T02:50:44;14.40;;;11.88;;
6372;SDS011;3219;51.362;7.074;2022-08-19T02:53:11;16.02;;;12.00;;
6372;SDS011;3219;51.362;7.074;2022-08-19T02:55:42;13.23;;;11.82;;
6372;SDS011;3219;51.362;7.074;2022-08-19T02:58:09;13.50;;;11.07;;
6372;SDS011;3219;51.362;7.074;2022-08-19T03:00:40;15.20;;;12.00;;
6372;SDS011;3219;51.362;7.074;2022-08-19T03:03:09;13.80;;;11.60;;
6372;SDS011;3219;51.362;7.074;2022-08-19T03:05:36;12.55;;;10.95;;
6372;SDS011;3219;51.362;7.074;2022-08-19T03:08:04;14.80;;;12.15;;
6372;SDS011;3219;51.362;7.074;2022-08-19T03:10:31;15.90;;;12.77;;
6372;SDS011;3219;51.362;7.074;2022-08-19T03:12:58;12.82;;;11.30;;
6372;SDS011;3219;51.362;7.074;2022-08-19T03:15:25;14.13;;;11.15;;
6372;SDS011;3219;51.362;7.074;2022-08-19T03:17:52;13.77;;;10.80;;
6372;SDS011;3219;51.362;7.074;2022-08-19T03:20:21;14.35;;;11.77;;
6372;SDS011;3219;51.362;7.074;2022-08-19T03:22:48;19.00;;;11.63;;
6372;SDS011;3219;51.362;7.074;2022-08-19T03:25:15;15.60;;;12.70;;
6372;SDS011;3219;51.362;7.074;2022-08-19T03:27:42;13.35;;;10.27;;
6372;SDS011;3219;51.362;7.074;2022-08-19T03:30:13;13.18;;;11.88;;
6372;SDS011;3219;51.362;7.074;2022-08-19T03:32:41;16.85;;;12.93;;
6372;SDS011;3219;51.362;7.074;2022-08-19T03:35:08;18.30;;;13.05;;
6372;SDS011;3219;51.362;7.074;2022-08-19T03:37:37;17.58;;;12.57;;
6372;SDS011;3219;51.362;7.074;2022-08-19T03:40:04;15.75;;;12.38;;
6372;SDS011;3219;51.362;7.074;2022-08-19T03:42:31;19.02;;;13.13;;
6372;SDS011;3219;51.362;7.074;2022-08-19T03:44:58;16.35;;;13.20;;
6372;SDS011;3219;51.362;7.074;2022-08-19T03:47:26;16.83;;;12.85;;
6372;SDS011;3219;51.362;7.074;2022-08-19T03:49:53;16.05;;;13.48;;
6372;SDS011;3219;51.362;7.074;2022-08-19T03:52:20;18.42;;;12.93;;
6372;SDS011;3219;51.362;7.074;2022-08-19T03:54:49;17.02;;;14.10;;
6372;SDS011;3219;51.362;7.074;2022-08-19T03:57:16;14.52;;;11.70;;
6372;SDS011;3219;51.362;7.074;2022-08-19T03:59:44;14.05;;;11.73;;
6372;SDS011;3219;51.362;7.074;2022-08-19T04:02:11;15.20;;;12.25;;
6372;SDS011;3219;51.362;7.074;2022-08-19T04:04:40;13.98;;;12.50;;
6372;SDS011;3219;51.362;7.074;2022-08-19T04:07:08;15.15;;;12.57;;
6372;SDS011;3219;51.362;7.074;2022-08-19T04:09:35;13.15;;;11.13;;
6372;SDS011;3219;51.362;7.074;2022-08-19T04:12:04;15.63;;;12.23;;
6372;SDS011;3219;51.362;7.074;2022-08-19T04:14:33;16.00;;;11.38;;
6372;SDS011;3219;51.362;7.074;2022-08-19T04:17:00;16.40;;;12.80;;
6372;SDS011;3219;51.362;7.074;2022-08-19T04:19:29;14.48;;;12.98;;
6372;SDS011;3219;51.362;7.074;2022-08-19T04:21:57;15.48;;;13.10;;
6372;SDS011;3219;51.362;7.074;2022-08-19T04:24:24;15.05;;;13.00;;
6372;SDS011;3219;51.362;7.074;2022-08-19T04:26:52;16.63;;;14.15;;
6372;SDS011;3219;51.362;7.074;2022-08-19T04:29:21;17.17;;;14.90;;
6372;SDS011;3219;51.362;7.074;2022-08-19T04:31:50;17.02;;;14.50;;
6372;SDS011;3219;51.362;7.074;2022-08-19T04:34:19;16.00;;;13.68;;
6372;SDS011;3219;51.362;7.074;2022-08-19T04:36:47;17.90;;;14.30;;
6372;SDS011;3219;51.362;7.074;2022-08-19T04:39:16;15.98;;;13.77;;
6372;SDS011;3219;51.362;7.074;2022-08-19T04:41:44;18.88;;;14.18;;
6372;SDS011;3219;51.362;7.074;2022-08-19T04:44:31;18.92;;;14.27;;
6372;SDS011;3219;51.362;7.074;2022-08-19T04:46:59;16.08;;;13.20;;
6372;SDS011;3219;51.362;7.074;2022-08-19T04:49:27;18.38;;;13.35;;
6372;SDS011;3219;51.362;7.074;2022-08-19T04:51:55;16.02;;;13.65;;
6372;SDS011;3219;51.362;7.074;2022-08-19T04:54:23;17.15;;;13.50;;
6372;SDS011;3219;51.362;7.074;2022-08-19T04:56:53;24.58;;;15.48;;
6372;SDS011;3219;51.362;7.074;2022-08-19T04:59:20;19.27;;;14.43;;
6372;SDS011;3219;51.362;7.074;2022-08-19T05:01:49;18.15;;;13.68;;
6372;SDS011;3219;51.362;7.074;2022-08-19T05:04:17;17.27;;;12.95;;
6372;SDS011;3219;51.362;7.074;2022-08-19T05:06:45;17.27;;;13.88;;
6372;SDS011;3219;51.362;7.074;2022-08-19T05:09:12;18.15;;;13.95;;
6372;SDS011;3219;51.362;7.074;2022-08-19T05:11:39;14.68;;;12.50;;
6372;SDS011;3219;51.362;7.074;2022-08-19T05:14:06;16.38;;;11.77;;
6372;SDS011;3219;51.362;7.074;2022-08-19T05:16:34;14.00;;;12.55;;
6372;SDS011;3219;51.362;7.074;2022-08-19T05:19:02;19.58;;;14.43;;
6372;SDS011;3219;51.362;7.074;2022-08-19T05:21:47;19.17;;;13.40;;
6372;SDS011;3219;51.362;7.074;2022-08-19T05:24:32;19.85;;;12.70;;
6372;SDS011;3219;51.362;7.074;2022-08-19T05:27:00;12.25;;;11.00;;
6372;SDS011;3219;51.362;7.074;2022-08-19T05:29:30;15.48;;;11.45;;
6372;SDS011;3219;51.362;7.074;2022-08-19T05:31:59;15.45;;;11.73;;
6372;SDS011;3219;51.362;7.074;2022-08-19T05:34:28;13.63;;;11.32;;
6372;SDS011;3219;51.362;7.074;2022-08-19T05:36:56;15.38;;;13.57;;
6372;SDS011;3219;51.362;7.074;2022-08-19T05:39:25;18.25;;;13.23;;
6372;SDS011;3219;51.362;7.074;2022-08-19T05:41:55;14.20;;;12.55;;
6372;SDS011;3219;51.362;7.074;2022-08-19T05:44:23;14.07;;;11.90;;
6372;SDS011;3219;51.362;7.074;2022-08-19T05:46:50;15.77;;;11.55;;
6372;SDS011;3219;51.362;7.074;2022-08-19T05:49:20;16.17;;;11.88;;
6372;SDS011;3219;51.362;7.074;2022-08-19T05:51:49;19.60;;;13.15;;
6372;SDS011;3219;51.362;7.074;2022-08-19T05:54:16;20.65;;;13.52;;
6372;SDS011;3219;51.362;7.074;2022-08-19T05:56:44;16.38;;;11.77;;
6372;SDS011;3219;51.362;7.074;2022-08-19T05:59:12;16.05;;;11.95;;
6372;SDS011;3219;51.362;7.074;2022-08-19T06:01:41;19.13;;;12.95;;
6372;SDS011;3219;51.362;7.074;2022-08-19T06:04:08;14.20;;;11.40;;
6372;SDS011;3219;51.362;7.074;2022-08-19T06:06:35;18.80;;;14.15;;
6372;SDS011;3219;51.362;7.074;2022-08-19T06:09:05;20.88;;;15.93;;
6372;SDS011;3219;51.362;7.074;2022-08-19T06:11:33;18.20;;;14.02;;
6372;SDS011;3219;51.362;7.074;2022-08-19T06:14:03;19.50;;;13.70;;
6372;SDS011;3219;51.362;7.074;2022-08-19T06:16:33;13.73;;;11.80;;
6372;SDS011;3219;51.362;7.074;2022-08-19T06:19:01;21.23;;;15.57;;
6372;SDS011;3219;51.362;7.074;2022-08-19T06:21:29;26.27;;;17.23;;
6372;SDS011;3219;51.362;7.074;2022-08-19T06:23:57;23.77;;;17.15;;
6372;SDS011;3219;51.362;7.074;2022-08-19T06:26:26;18.73;;;14.05;;
6372;SDS011;3219;51.362;7.074;2022-08-19T06:28:53;16.80;;;12.20;;
6372;SDS011;3219;51.362;7.074;2022-08-19T06:31:23;16.20;;;12.05;;
6372;SDS011;3219;51.362;7.074;2022-08-19T06:33:52;12.27;;;10.55;;
6372;SDS011;3219;51.362;7.074;2022-08-19T06:36:20;17.77;;;10.23;;
6372;SDS011;3219;51.362;7.074;2022-08-19T06:38:56;12.05;;;9.40;;
6372;SDS011;3219;51.362;7.074;2022-08-19T06:41:24;18.65;;;11.20;;
6372;SDS011;3219;51.362;7.074;2022-08-19T06:43:52;11.57;;;8.90;;
6372;SDS011;3219;51.362;7.074;2022-08-19T06:46:20;12.93;;;9.60;;
6372;SDS011;3219;51.362;7.074;2022-08-19T06:48:47;12.98;;;10.07;;
6372;SDS011;3219;51.362;7.074;2022-08-19T06:51:15;12.43;;;9.75;;
6372;SDS011;3219;51.362;7.074;2022-08-19T06:53:43;17.40;;;12.18;;
6372;SDS011;3219;51.362;7.074;2022-08-19T06:56:12;14.10;;;10.70;;
6372;SDS011;3219;51.362;7.074;2022-08-19T06:58:39;18.50;;;12.15;;
6372;SDS011;3219;51.362;7.074;2022-08-19T07:01:08;17.48;;;12.27;;
6372;SDS011;3219;51.362;7.074;2022-08-19T07:03:36;10.27;;;9.02;;
6372;SDS011;3219;51.362;7.074;2022-08-19T07:06:05;14.25;;;9.63;;
6372;SDS011;3219;51.362;7.074;2022-08-19T07:08:34;13.60;;;10.27;;
6372;SDS011;3219;51.362;7.074;2022-08-19T07:11:02;12.98;;;10.30;;
6372;SDS011;3219;51.362;7.074;2022-08-19T07:13:35;11.32;;;8.20;;
6372;SDS011;3219;51.362;7.074;2022-08-19T07:16:04;15.23;;;11.82;;
6372;SDS011;3219;51.362;7.074;2022-08-19T07:18:34;14.98;;;8.85;;
6372;SDS011;3219;51.362;7.074;2022-08-19T07:21:03;12.18;;;9.77;;
6372;SDS011;3219;51.362;7.074;2022-08-19T07:23:30;12.98;;;7.43;;
6372;SDS011;3219;51.362;7.074;2022-08-19T07:25:57;11.07;;;9.90;;
6372;SDS011;3219;51.362;7.074;2022-08-19T07:28:25;11.02;;;8.25;;
6372;SDS011;3219;51.362;7.074;2022-08-19T07:30:51;9.60;;;7.32;;
6372;SDS011;3219;51.362;7.074;2022-08-19T07:33:18;11.93;;;10.05;;
6372;SDS011;3219;51.362;7.074;2022-08-19T07:35:47;9.98;;;8.25;;
6372;SDS011;3219;51.362;7.074;2022-08-19T07:38:14;14.98;;;10.07;;
6372;SDS011;3219;51.362;7.074;2022-08-19T07:40:42;10.32;;;5.93;;
6372;SDS011;3219;51.362;7.074;2022-08-19T07:43:11;12.88;;;8.05;;
6372;SDS011;3219;51.362;7.074;2022-08-19T07:45:40;12.60;;;8.05;;
6372;SDS011;3219;51.362;7.074;2022-08-19T07:48:07;14.85;;;10.82;;
6372;SDS011;3219;51.362;7.074;2022-08-19T07:50:36;10.40;;;9.20;;
6372;SDS011;3219;51.362;7.074;2022-08-19T07:53:05;11.73;;;6.72;;
6372;SDS011;3219;51.362;7.074;2022-08-19T07:55:33;14.80;;;9.82;;
6372;SDS011;3219;51.362;7.074;2022-08-19T07:58:00;11.98;;;7.13;;
6372;SDS011;3219;51.362;7.074;2022-08-19T08:00:27;15.48;;;12.43;;
6372;SDS011;3219;51.362;7.074;2022-08-19T08:02:54;15.00;;;9.15;;
6372;SDS011;3219;51.362;7.074;2022-08-19T08:05:22;14.32;;;10.02;;
6372;SDS011;3219;51.362;7.074;2022-08-19T08:08:08;14.82;;;11.95;;
6372;SDS011;3219;51.362;7.074;2022-08-19T08:11:01;15.30;;;12.63;;
6372;SDS011;3219;51.362;7.074;2022-08-19T08:13:30;15.48;;;11.10;;
6372;SDS011;3219;51.362;7.074;2022-08-19T08:15:58;13.85;;;11.95;;
6372;SDS011;3219;51.362;7.074;2022-08-19T08:18:24;17.70;;;15.75;;
6372;SDS011;3219;51.362;7.074;2022-08-19T08:20:51;17.00;;;15.20;;
6372;SDS011;3219;51.362;7.074;2022-08-19T08:23:20;23.85;;;15.55;;
6372;SDS011;3219;51.362;7.074;2022-08-19T08:25:50;19.67;;;16.83;;
6372;SDS011;3219;51.362;7.074;2022-08-19T08:28:19;25.38;;;20.60;;
6372;SDS011;3219;51.362;7.074;2022-08-19T08:30:47;25.27;;;20.42;;
6372;SDS011;3219;51.362;7.074;2022-08-19T08:33:17;22.95;;;19.33;;
6372;SDS011;3219;51.362;7.074;2022-08-19T08:35:44;27.95;;;24.23;;
6372;SDS011;3219;51.362;7.074;2022-08-19T08:38:11;20.63;;;18.38;;
6372;SDS011;3219;51.362;7.074;2022-08-19T08:40:42;28.02;;;21.45;;
6372;SDS011;3219;51.362;7.074;2022-08-19T08:43:18;34.25;;;28.35;;
6372;SDS011;3219;51.362;7.074;2022-08-19T08:45:50;25.90;;;22.27;;
6372;SDS011;3219;51.362;7.074;2022-08-19T08:48:24;31.33;;;24.48;;
6372;SDS011;3219;51.362;7.074;2022-08-19T08:50:56;35.47;;;28.05;;
6372;SDS011;3219;51.362;7.074;2022-08-19T08:53:25;28.40;;;23.90;;
6372;SDS011;3219;51.362;7.074;2022-08-19T08:55:54;27.40;;;24.15;;
6372;SDS011;3219;51.362;7.074;2022-08-19T08:58:24;23.60;;;20.88;;
6372;SDS011;3219;51.362;7.074;2022-08-19T09:00:55;23.52;;;21.02;;
6372;SDS011;3219;51.362;7.074;2022-08-19T09:03:23;29.63;;;18.58;;
6372;SDS011;3219;51.362;7.074;2022-08-19T09:05:55;29.23;;;22.92;;
6372;SDS011;3219;51.362;7.074;2022-08-19T09:08:28;20.27;;;16.42;;
6372;SDS011;3219;51.362;7.074;2022-08-19T09:11:09;23.45;;;18.05;;
6372;SDS011;3219;51.362;7.074;2022-08-19T09:13:41;18.33;;;16.52;;
6372;SDS011;3219;51.362;7.074;2022-08-19T09:16:13;17.65;;;15.07;;
6372;SDS011;3219;51.362;7.074;2022-08-19T09:18:46;16.60;;;14.90;;
6372;SDS011;3219;51.362;7.074;2022-08-19T09:21:17;16.48;;;12.43;;
6372;SDS011;3219;51.362;7.074;2022-08-19T09:23:44;17.05;;;13.93;;
6372;SDS011;3219;51.362;7.074;2022-08-19T09:26:12;19.33;;;16.05;;
6372;SDS011;3219;51.362;7.074;2022-08-19T09:28:40;24.67;;;17.05;;
6372;SDS011;3219;51.362;7.074;2022-08-19T09:31:09;17.55;;;14.68;;
6372;SDS011;3219;51.362;7.074;2022-08-19T09:33:36;12.65;;;11.13;;
6372;SDS011;3219;51.362;7.074;2022-08-19T09:36:04;14.93;;;13.32;;
6372;SDS011;3219;51.362;7.074;2022-08-19T09:38:33;15.27;;;13.68;;
6372;SDS011;3219;51.362;7.074;2022-08-19T09:41:03;17.52;;;13.55;;
6372;SDS011;3219;51.362;7.074;2022-08-19T09:43:32;14.07;;;12.45;;
6372;SDS011;3219;51.362;7.074;2022-08-19T09:46:01;18.30;;;10.95;;
6372;SDS011;3219;51.362;7.074;2022-08-19T09:48:30;16.98;;;15.23;;
6372;SDS011;3219;51.362;7.074;2022-08-19T09:51:02;13.88;;;12.02;;
6372;SDS011;3219;51.362;7.074;2022-08-19T09:53:30;17.63;;;14.45;;
6372;SDS011;3219;51.362;7.074;2022-08-19T09:55:57;9.73;;;8.70;;
6372;SDS011;3219;51.362;7.074;2022-08-19T09:58:24;14.77;;;12.00;;
6372;SDS011;3219;51.362;7.074;2022-08-19T10:00:54;17.92;;;13.20;;
6372;SDS011;3219;51.362;7.074;2022-08-19T10:03:21;22.20;;;16.55;;
6372;SDS011;3219;51.362;7.074;2022-08-19T10:05:49;16.98;;;11.75;;
6372;SDS011;3219;51.362;7.074;2022-08-19T10:08:16;17.90;;;13.90;;
6372;SDS011;3219;51.362;7.074;2022-08-19T10:10:44;15.80;;;11.63;;
6372;SDS011;3219;51.362;7.074;2022-08-19T10:13:12;16.15;;;12.75;;
6372;SDS011;3219;51.362;7.074;2022-08-19T10:15:40;12.05;;;9.73;;
6372;SDS011;3219;51.362;7.074;2022-08-19T10:18:08;17.73;;;12.18;;
6372;SDS011;3219;51.362;7.074;2022-08-19T10:20:36;9.18;;;8.15;;
6372;SDS011;3219;51.362;7.074;2022-08-19T10:23:03;15.60;;;11.15;;
6372;SDS011;3219;51.362;7.074;2022-08-19T10:25:31;27.15;;;14.45;;
6372;SDS011;3219;51.362;7.074;2022-08-19T10:27:59;16.67;;;10.88;;
6372;SDS011;3219;51.362;7.074;2022-08-19T10:30:26;17.50;;;14.27;;
6372;SDS011;3219;51.362;7.074;2022-08-19T10:32:54;16.55;;;11.25;;
6372;SDS011;3219;51.362;7.074;2022-08-19T10:35:22;18.83;;;13.13;;
6372;SDS011;3219;51.362;7.074;2022-08-19T10:37:51;18.23;;;15.18;;
6372;SDS011;3219;51.362;7.074;2022-08-19T10:40:18;13.07;;;11.00;;
6372;SDS011;3219;51.362;7.074;2022-08-19T10:42:45;19.38;;;17.30;;
6372;SDS011;3219;51.362;7.074;2022-08-19T10:45:12;15.98;;;12.98;;
6372;SDS011;3219;51.362;7.074;2022-08-19T10:47:38;23.00;;;16.38;;
6372;SDS011;3219;51.362;7.074;2022-08-19T10:50:06;19.42;;;15.75;;
6372;SDS011;3219;51.362;7.074;2022-08-19T10:52:52;23.35;;;17.25;;
6372;SDS011;3219;51.362;7.074;2022-08-19T10:55:20;16.85;;;14.68;;
6372;SDS011;3219;51.362;7.074;2022-08-19T10:58:09;17.80;;;15.93;;
6372;SDS011;3219;51.362;7.074;2022-08-19T11:00:37;17.85;;;15.90;;
6372;SDS011;3219;51.362;7.074;2022-08-19T11:03:05;20.90;;;17.88;;
6372;SDS011;3219;51.362;7.074;2022-08-19T11:05:32;16.58;;;13.55;;
6372;SDS011;3219;51.362;7.074;2022-08-19T11:08:00;17.05;;;13.90;;
6372;SDS011;3219;51.362;7.074;2022-08-19T11:10:27;18.33;;;14.45;;
6372;SDS011;3219;51.362;7.074;2022-08-19T11:12:54;19.65;;;15.70;;
6372;SDS011;3219;51.362;7.074;2022-08-19T11:15:21;19.80;;;17.20;;
6372;SDS011;3219;51.362;7.074;2022-08-19T11:17:50;17.45;;;13.93;;
6372;SDS011;3219;51.362;7.074;2022-08-19T11:20:19;19.55;;;16.20;;
6372;SDS011;3219;51.362;7.074;2022-08-19T11:22:46;19.40;;;15.45;;
6372;SDS011;3219;51.362;7.074;2022-08-19T11:25:14;21.83;;;14.02;;
6372;SDS011;3219;51.362;7.074;2022-08-19T11:27:41;19.35;;;13.60;;
6372;SDS011;3219;51.362;7.074;2022-08-19T11:30:10;16.48;;;13.27;;
6372;SDS011;3219;51.362;7.074;2022-08-19T11:32:40;21.17;;;12.90;;
6372;SDS011;3219;51.362;7.074;2022-08-19T11:35:07;19.65;;;14.27;;
6372;SDS011;3219;51.362;7.074;2022-08-19T11:37:36;17.63;;;14.25;;
6372;SDS011;3219;51.362;7.074;2022-08-19T11:40:03;13.18;;;11.48;;
6372;SDS011;3219;51.362;7.074;2022-08-19T11:42:33;14.52;;;11.77;;
6372;SDS011;3219;51.362;7.074;2022-08-19T11:45:17;13.45;;;10.95;;
6372;SDS011;3219;51.362;7.074;2022-08-19T11:47:44;15.50;;;11.02;;
6372;SDS011;3219;51.362;7.074;2022-08-19T11:50:12;16.90;;;11.60;;
6372;SDS011;3219;51.362;7.074;2022-08-19T11:52:39;12.93;;;9.38;;
6372;SDS011;3219;51.362;7.074;2022-08-19T11:55:06;10.65;;;8.95;;
6372;SDS011;3219;51.362;7.074;2022-08-19T11:57:35;16.15;;;12.02;;
6372;SDS011;3219;51.362;7.074;2022-08-19T12:00:03;14.48;;;10.90;;
6372;SDS011;3219;51.362;7.074;2022-08-19T12:02:31;11.80;;;9.65;;
6372;SDS011;3219;51.362;7.074;2022-08-19T12:04:58;12.02;;;10.60;;
6372;SDS011;3219;51.362;7.074;2022-08-19T12:07:28;25.25;;;13.23;;
6372;SDS011;3219;51.362;7.074;2022-08-19T12:09:56;13.63;;;9.82;;
6372;SDS011;3219;51.362;7.074;2022-08-19T12:12:23;14.63;;;12.15;;
6372;SDS011;3219;51.362;7.074;2022-08-19T12:14:52;12.85;;;10.15;;
6372;SDS011;3219;51.362;7.074;2022-08-19T12:17:23;10.98;;;9.00;;
6372;SDS011;3219;51.362;7.074;2022-08-19T12:19:50;9.13;;;8.23;;
6372;SDS011;3219;51.362;7.074;2022-08-19T12:22:17;14.23;;;9.55;;
6372;SDS011;3219;51.362;7.074;2022-08-19T12:24:45;12.35;;;7.72;;
6372;SDS011;3219;51.362;7.074;2022-08-19T12:27:13;10.43;;;8.05;;
6372;SDS011;3219;51.362;7.074;2022-08-19T12:29:39;11.38;;;8.07;;
6372;SDS011;3219;51.362;7.074;2022-08-19T12:32:08;8.48;;;7.60;;
6372;SDS011;3219;51.362;7.074;2022-08-19T12:34:35;9.68;;;7.53;;
6372;SDS011;3219;51.362;7.074;2022-08-19T12:37:02;11.80;;;6.93;;
6372;SDS011;3219;51.362;7.074;2022-08-19T12:39:33;6.30;;;5.70;;
6372;SDS011;3219;51.362;7.074;2022-08-19T12:42:01;11.07;;;6.32;;
6372;SDS011;3219;51.362;7.074;2022-08-19T12:44:28;12.10;;;5.75;;
6372;SDS011;3219;51.362;7.074;2022-08-19T12:46:55;9.45;;;6.47;;
6372;SDS011;3219;51.362;7.074;2022-08-19T12:49:23;14.35;;;7.50;;
6372;SDS011;3219;51.362;7.074;2022-08-19T12:51:50;7.70;;;5.88;;
6372;SDS011;3219;51.362;7.074;2022-08-19T12:54:17;9.55;;;5.45;;
6372;SDS011;3219;51.362;7.074;2022-08-19T12:56:45;7.18;;;5.20;;
6372;SDS011;3219;51.362;7.074;2022-08-19T12:59:11;9.38;;;6.10;;
6372;SDS011;3219;51.362;7.074;2022-08-19T13:01:41;8.30;;;5.30;;
6372;SDS011;3219;51.362;7.074;2022-08-19T13:04:10;8.27;;;5.72;;
6372;SDS011;3219;51.362;7.074;2022-08-19T13:06:38;8.32;;;6.45;;
6372;SDS011;3219;51.362;7.074;2022-08-19T13:09:06;8.23;;;6.18;;
6372;SDS011;3219;51.362;7.074;2022-08-19T13:11:33;7.00;;;5.22;;
6372;SDS011;3219;51.362;7.074;2022-08-19T13:14:00;9.90;;;6.20;;
6372;SDS011;3219;51.362;7.074;2022-08-19T13:16:28;8.27;;;5.53;;
6372;SDS011;3219;51.362;7.074;2022-08-19T13:18:55;9.60;;;6.18;;
6372;SDS011;3219;51.362;7.074;2022-08-19T13:21:24;8.82;;;5.35;;
6372;SDS011;3219;51.362;7.074;2022-08-19T13:23:53;5.63;;;5.03;;
6372;SDS011;3219;51.362;7.074;2022-08-19T13:26:20;7.03;;;4.85;;
6372;SDS011;3219;51.362;7.074;2022-08-19T13:28:48;6.63;;;5.30;;
6372;SDS011;3219;51.362;7.074;2022-08-19T13:31:33;8.45;;;5.60;;
6372;SDS011;3219;51.362;7.074;2022-08-19T13:34:26;8.23;;;6.15;;
6372;SDS011;3219;51.362;7.074;2022-08-19T13:36:55;6.63;;;5.47;;
6372;SDS011;3219;51.362;7.074;2022-08-19T13:39:23;6.43;;;5.25;;
6372;SDS011;3219;51.362;7.074;2022-08-19T13:41:50;8.70;;;5.22;;
6372;SDS011;3219;51.362;7.074;2022-08-19T13:44:17;6.18;;;4.85;;
6372;SDS011;3219;51.362;7.074;2022-08-19T13:46:45;8.13;;;4.50;;
6372;SDS011;3219;51.362;7.074;2022-08-19T13:49:13;9.40;;;5.70;;
6372;SDS011;3219;51.362;7.074;2022-08-19T13:51:41;8.93;;;4.68;;
6372;SDS011;3219;51.362;7.074;2022-08-19T13:54:09;7.47;;;4.00;;
6372;SDS011;3219;51.362;7.074;2022-08-19T13:56:40;12.25;;;5.28;;
6372;SDS011;3219;51.362;7.074;2022-08-19T13:59:08;10.20;;;4.68;;
6372;SDS011;3219;51.362;7.074;2022-08-19T14:01:35;18.45;;;5.00;;
6372;SDS011;3219;51.362;7.074;2022-08-19T14:04:03;8.52;;;4.57;;
6372;SDS011;3219;51.362;7.074;2022-08-19T14:06:30;13.32;;;5.80;;
6372;SDS011;3219;51.362;7.074;2022-08-19T14:08:57;9.38;;;4.57;;
6372;SDS011;3219;51.362;7.074;2022-08-19T14:11:24;6.10;;;4.18;;
6372;SDS011;3219;51.362;7.074;2022-08-19T14:13:53;8.05;;;4.43;;
6372;SDS011;3219;51.362;7.074;2022-08-19T14:16:20;8.77;;;4.45;;
6372;SDS011;3219;51.362;7.074;2022-08-19T14:18:47;9.40;;;4.10;;
6372;SDS011;3219;51.362;7.074;2022-08-19T14:21:14;10.43;;;4.35;;
6372;SDS011;3219;51.362;7.074;2022-08-19T14:23:43;9.25;;;3.75;;
6372;SDS011;3219;51.362;7.074;2022-08-19T14:26:11;14.82;;;3.85;;
6372;SDS011;3219;51.362;7.074;2022-08-19T14:28:39;5.63;;;3.47;;
6372;SDS011;3219;51.362;7.074;2022-08-19T14:31:08;6.88;;;4.07;;
6372;SDS011;3219;51.362;7.074;2022-08-19T14:33:35;9.73;;;3.78;;
6372;SDS011;3219;51.362;7.074;2022-08-19T14:36:02;11.23;;;3.78;;
6372;SDS011;3219;51.362;7.074;2022-08-19T14:38:29;5.28;;;3.67;;
6372;SDS011;3219;51.362;7.074;2022-08-19T14:41:05;7.10;;;3.78;;
6372;SDS011;3219;51.362;7.074;2022-08-19T14:43:33;6.47;;;3.55;;
6372;SDS011;3219;51.362;7.074;2022-08-19T14:46:00;9.95;;;3.92;;
6372;SDS011;3219;51.362;7.074;2022-08-19T14:48:29;12.95;;;4.47;;
6372;SDS011;3219;51.362;7.074;2022-08-19T14:50:56;6.80;;;4.20;;
6372;SDS011;3219;51.362;7.074;2022-08-19T14:53:23;10.52;;;5.18;;
6372;SDS011;3219;51.362;7.074;2022-08-19T14:55:50;5.32;;;3.85;;
6372;SDS011;3219;51.362;7.074;2022-08-19T14:58:17;10.98;;;4.75;;
6372;SDS011;3219;51.362;7.074;2022-08-19T15:00:44;8.65;;;4.82;;
6372;SDS011;3219;51.362;7.074;2022-08-19T15:03:10;7.25;;;4.38;;
6372;SDS011;3219;51.362;7.074;2022-08-19T15:05:39;7.57;;;4.55;;
6372;SDS011;3219;51.362;7.074;2022-08-19T15:08:06;7.75;;;5.80;;